Time;durP1;ratioP1;P1;durP2;ratioP2;P2;SDS_P1;SDS_P2;PMS_P1;PMS_P2;Temp;Humidity;BMP_temperature;BMP_pressure;BME280_temperature;BME280_humidity;BME280_pressure;Samples;Min_cycle;Max_cycle;Signal;HPM_P1;HPM_P2
2022/06/01 00:08:15;;;;;;;6.85;2.58;;;10.10;99.90;;;;;;20830179;28;20035;-73
2022/06/01 00:18:16;;;;;;;6.37;2.63;;;10.10;99.90;;;;;;20829338;28;20049;-73
2022/06/01 00:28:17;;;;;;;4.00;2.97;;;10.00;99.90;;;;;;20828091;28;20124;-73
2022/06/01 00:38:18;;;;;;;6.50;2.67;;;10.00;99.90;;;;;;20826486;28;20438;-73
2022/06/01 00:48:24;;;;;;;3.07;2.10;;;10.20;99.90;;;;;;20828117;28;20029;-73
2022/06/01 00:58:30;;;;;;;4.28;2.45;;;10.00;99.90;;;;;;20826105;28;20044;-73
2022/06/01 01:08:31;;;;;;;6.45;2.75;;;10.00;99.90;;;;;;20825980;28;20029;-73
2022/06/01 01:18:41;;;;;;;6.15;2.72;;;9.80;99.90;;;;;;20824224;28;20052;-73
2022/06/01 01:28:42;;;;;;;3.83;2.50;;;9.90;99.90;;;;;;20807322;28;20120;-73
2022/06/01 01:39:07;;;;;;;4.60;2.75;;;9.70;99.90;;;;;;20825852;28;20028;-73
2022/06/01 01:49:09;;;;;;;7.10;2.60;;;9.40;99.90;;;;;;20844731;28;20542;-74
2022/06/01 01:59:39;;;;;;;4.47;2.70;;;9.40;99.90;;;;;;20840068;28;20029;-73
2022/06/01 02:20:10;;;;;;;4.38;2.60;;;9.40;99.90;;;;;;20837387;28;20034;-73
2022/06/01 02:30:35;;;;;;;5.85;3.08;;;9.20;99.90;;;;;;20828258;23;20037;-77
2022/06/01 02:40:36;;;;;;;4.57;3.20;;;9.10;99.90;;;;;;20756443;28;20061;-77
2022/06/01 02:50:37;;;;;;;7.07;2.80;;;9.20;99.90;;;;;;20757560;28;20085;-77
2022/06/01 03:00:40;;;;;;;7.00;2.80;;;9.40;99.90;;;;;;20755128;28;20037;-77
2022/06/01 03:10:41;;;;;;;5.22;2.67;;;9.40;99.90;;;;;;20754848;28;20061;-77
2022/06/01 03:20:42;;;;;;;13.87;2.80;;;9.60;99.90;;;;;;20737470;28;20026;-78
2022/06/01 03:30:43;;;;;;;5.73;2.47;;;9.70;99.90;;;;;;20756507;28;20133;-77
2022/06/01 03:40:44;;;;;;;8.65;2.72;;;9.50;99.90;;;;;;20768998;28;20492;-77
2022/06/01 03:50:45;;;;;;;19.77;7.47;;;9.60;99.90;;;;;;20794418;28;20037;-78
2022/06/01 04:00:46;;;;;;;24.47;7.20;;;9.60;99.90;;;;;;20836954;28;20061;-78
2022/06/01 04:10:48;;;;;;;7.87;3.20;;;9.60;99.90;;;;;;20814733;28;20056;-77
2022/06/01 04:20:52;;;;;;;5.40;3.22;;;9.60;99.90;;;;;;20812508;28;20347;-77
2022/06/01 04:30:53;;;;;;;5.20;3.28;;;9.90;99.90;;;;;;20821995;28;20037;-76
2022/06/01 04:40:53;;;;;;;5.43;3.77;;;10.10;99.90;;;;;;20791713;28;20104;-77
2022/06/01 04:50:57;;;;;;;7.63;3.47;;;10.50;99.90;;;;;;20755816;28;20040;-78
2022/06/01 05:00:57;;;;;;;8.77;2.97;;;10.80;99.90;;;;;;20781790;28;20034;-78
2022/06/01 05:10:58;;;;;;;6.33;3.57;;;10.90;99.90;;;;;;20782731;28;20040;-78
2022/06/01 05:20:59;;;;;;;3.10;2.70;;;11.20;99.90;;;;;;20743143;28;20044;-78
2022/06/01 05:31:03;;;;;;;5.30;3.43;;;11.60;99.90;;;;;;20742198;28;20502;-76
2022/06/01 05:41:04;;;;;;;5.32;3.60;;;12.40;99.90;;;;;;20742968;28;20112;-75
2022/06/01 05:51:05;;;;;;;11.17;5.77;;;12.90;99.90;;;;;;20743198;28;20057;-77
2022/06/01 06:01:07;;;;;;;11.90;7.67;;;13.30;99.90;;;;;;20743434;28;20080;-77
2022/06/01 06:11:08;;;;;;;11.85;8.52;;;13.60;99.90;;;;;;20736111;28;20030;-77
2022/06/01 06:21:09;;;;;;;13.10;7.27;;;14.10;99.90;;;;;;20743452;28;20033;-77
2022/06/01 06:31:10;;;;;;;6.93;5.53;;;14.70;99.90;;;;;;20744024;28;20492;-77
2022/06/01 06:41:11;;;;;;;8.77;5.93;;;15.50;99.90;;;;;;20761948;28;20084;-77
2022/06/01 06:51:12;;;;;;;13.13;6.63;;;14.90;99.90;;;;;;20757092;28;20411;-77
2022/06/01 07:01:13;;;;;;;9.50;6.33;;;14.90;99.90;;;;;;20756893;28;20041;-77
2022/06/01 07:11:16;;;;;;;9.83;6.10;;;15.50;99.90;;;;;;20754756;28;20026;-77
2022/06/01 07:21:18;;;;;;;9.25;5.97;;;16.50;99.90;;;;;;20757721;28;20030;-77
2022/06/01 07:31:20;;;;;;;7.50;5.97;;;16.60;99.90;;;;;;20755225;28;20034;-77
2022/06/01 07:51:44;;;;;;;6.43;4.17;;;18.10;99.90;;;;;;20750176;28;19932;-77
2022/06/01 08:01:45;;;;;;;7.30;4.38;;;19.00;99.90;;;;;;20752133;28;20293;-76
2022/06/01 08:22:05;;;;;;;9.65;4.53;;;19.60;99.90;;;;;;20747378;28;20083;-77
2022/06/01 08:32:07;;;;;;;8.83;3.30;;;21.00;99.90;;;;;;20783477;22;20057;-72
2022/06/01 08:42:13;;;;;;;4.03;2.53;;;20.70;99.90;;;;;;20827614;28;20456;-72
2022/06/01 08:52:13;;;;;;;4.28;1.85;;;20.50;99.90;;;;;;20829249;28;20030;-72
2022/06/01 09:02:43;;;;;;;2.80;2.07;;;20.50;99.90;;;;;;20826546;28;20488;-73
2022/06/01 09:12:45;;;;;;;3.08;2.05;;;21.10;99.90;;;;;;20824859;28;20030;-73
2022/06/01 09:22:49;;;;;;;3.05;2.20;;;21.10;99.90;;;;;;20825729;28;20037;-72
2022/06/01 09:33:23;;;;;;;3.58;1.80;;;21.70;99.90;;;;;;20824926;28;20124;-72
2022/06/01 09:43:25;;;;;;;6.53;1.73;;;21.50;99.90;;;;;;20827757;28;20048;-73
2022/06/01 09:53:47;;;;;;;2.92;0.80;;;22.60;99.90;;;;;;20828410;28;20033;-72
2022/06/01 10:14:14;;;;;;;6.43;3.17;;;22.20;99.90;;;;;;20839110;28;20340;-72
2022/06/01 10:24:23;;;;;;;4.13;2.00;;;22.40;99.90;;;;;;20840805;28;20037;-72
2022/06/01 10:34:57;;;;;;;5.53;4.40;;;22.70;99.90;;;;;;20837954;28;20041;-72
2022/06/01 10:45:04;;;;;;;5.13;1.50;;;22.30;99.90;;;;;;20797906;28;20037;-71
2022/06/01 10:55:13;;;;;;;4.20;1.27;;;22.00;99.90;;;;;;20836289;28;20033;-71
2022/06/01 11:05:33;;;;;;;3.17;1.05;;;21.10;99.90;;;;;;20835452;28;20044;-72
2022/06/01 11:16:00;;;;;;;2.10;1.38;;;21.00;99.90;;;;;;20834525;28;20033;-72
2022/06/01 11:26:18;;;;;;;2.90;1.10;;;20.90;99.90;;;;;;20827736;28;20037;-71
2022/06/01 11:36:22;;;;;;;2.03;1.10;;;20.10;99.90;;;;;;20773157;28;20034;-73
2022/06/01 11:46:35;;;;;;;1.30;1.00;;;19.80;99.90;;;;;;20752937;28;20045;-72
2022/06/01 11:57:16;;;;;;;6.30;1.20;;;19.50;99.90;;;;;;20749472;28;20034;-72
2022/06/01 12:07:33;;;;;;;2.33;1.17;;;18.80;99.90;;;;;;20748746;28;20040;-72
2022/06/01 12:17:36;;;;;;;4.25;1.42;;;19.30;99.90;;;;;;20763023;28;20030;-72
2022/06/01 12:28:31;;;;;;;1.50;1.00;;;19.90;99.90;;;;;;20746469;28;20396;-72
2022/06/01 12:38:38;;;;;;;8.48;1.70;;;19.80;99.90;;;;;;20746557;28;20037;-72
2022/06/01 12:48:39;;;;;;;4.10;1.33;;;19.40;99.90;;;;;;20746231;28;20034;-72
2022/06/01 12:58:40;;;;;;;5.67;1.57;;;19.30;99.90;;;;;;20745304;28;20041;-72
2022/06/01 13:08:41;;;;;;;5.73;1.53;;;18.90;99.90;;;;;;20744665;28;20380;-73
2022/06/01 13:18:44;;;;;;;3.17;1.67;;;18.60;99.90;;;;;;20747435;28;20343;-72
2022/06/01 13:28:47;;;;;;;3.85;1.45;;;18.60;99.90;;;;;;20743387;28;20065;-72
2022/06/01 13:38:49;;;;;;;2.42;1.70;;;18.60;99.90;;;;;;20752809;28;20034;-72
2022/06/01 13:48:55;;;;;;;2.63;1.55;;;18.50;99.90;;;;;;20761903;28;20092;-72
2022/06/01 13:59:09;;;;;;;5.07;2.40;;;18.60;99.90;;;;;;20777575;28;20034;-72
2022/06/01 14:09:15;;;;;;;7.45;2.28;;;18.50;99.90;;;;;;20760033;28;20022;-72
2022/06/01 14:19:16;;;;;;;5.03;2.88;;;18.20;99.90;;;;;;20748750;28;20053;-72
2022/06/01 14:29:17;;;;;;;5.27;2.03;;;18.00;99.90;;;;;;20781139;22;20094;-78
2022/06/01 14:39:21;;;;;;;11.73;2.67;;;18.20;99.90;;;;;;20824278;28;20471;-77
2022/06/01 14:49:22;;;;;;;2.03;1.42;;;18.40;99.90;;;;;;20771715;28;20061;-76
2022/06/01 14:59:23;;;;;;;8.67;2.37;;;18.30;99.90;;;;;;20738943;28;20041;-76
2022/06/01 15:09:24;;;;;;;3.33;2.03;;;18.20;99.90;;;;;;20799548;28;20045;-77
2022/06/01 15:19:30;;;;;;;9.20;2.17;;;18.00;99.90;;;;;;20736672;28;20038;-77
2022/06/01 15:39:51;;;;;;;2.70;1.88;;;18.00;99.90;;;;;;20753880;28;20081;-77
2022/06/01 15:49:59;;;;;;;4.33;2.10;;;17.70;99.90;;;;;;20792085;28;20048;-78
2022/06/01 16:00:00;;;;;;;5.40;2.33;;;17.40;99.90;;;;;;20791278;28;20156;-78
2022/06/01 16:10:02;;;;;;;7.73;3.20;;;17.10;99.90;;;;;;20797831;28;20483;-77
2022/06/01 16:20:06;;;;;;;;;;;16.80;99.90;;;;;;20784977;28;20112;-76
2022/06/01 16:30:09;;;;;;;8.57;2.90;;;16.70;99.90;;;;;;20779558;28;20282;-77
2022/06/01 16:40:15;;;;;;;4.82;2.90;;;16.50;99.90;;;;;;20791719;28;20038;-78
2022/06/01 16:50:18;;;;;;;15.32;3.97;;;16.50;99.90;;;;;;20783869;28;20464;-78
2022/06/01 17:00:21;;;;;;;10.10;3.10;;;16.40;99.90;;;;;;20785338;28;20036;-78
2022/06/01 17:10:22;;;;;;;6.38;3.85;;;16.10;99.90;;;;;;20775007;28;20117;-78
2022/06/01 17:20:27;;;;;;;6.47;4.07;;;15.90;99.90;;;;;;20805021;28;20544;-77
2022/06/01 17:30:28;;;;;;;12.02;5.97;;;15.70;99.90;;;;;;20780919;28;20091;-78
2022/06/01 17:40:30;;;;;;;8.97;6.13;;;15.60;99.90;;;;;;20765555;28;20121;-78
2022/06/01 17:50:31;;;;;;;8.82;4.82;;;15.60;99.90;;;;;;20724928;28;20113;-78
2022/06/01 18:00:33;;;;;;;13.50;5.97;;;15.50;99.90;;;;;;20724021;28;20150;-79
2022/06/01 18:10:34;;;;;;;9.45;7.15;;;15.40;99.90;;;;;;20724279;28;20048;-78
2022/06/01 18:20:38;;;;;;;9.47;5.87;;;15.20;99.90;;;;;;20725896;28;20037;-79
2022/06/01 18:30:42;;;;;;;9.70;7.38;;;15.10;99.90;;;;;;20753509;28;20033;-77
2022/06/01 18:40:50;;;;;;;14.48;8.15;;;14.80;99.90;;;;;;20817230;28;20041;-76
2022/06/01 18:50:51;;;;;;;9.43;7.43;;;14.70;99.90;;;;;;20771286;28;20050;-76
2022/06/01 19:11:12;;;;;;;12.27;8.07;;;14.50;99.90;;;;;;20808356;28;20033;-77
2022/06/01 19:21:14;;;;;;;12.55;8.63;;;14.50;99.90;;;;;;20795152;28;20033;-78
2022/06/01 19:31:19;;;;;;;12.70;8.25;;;14.40;99.90;;;;;;20733606;28;20084;-77
2022/06/01 19:51:39;;;;;;;13.05;8.27;;;14.30;99.90;;;;;;20731721;28;20116;-77
2022/06/01 20:01:41;;;;;;;15.20;9.40;;;14.30;99.90;;;;;;20730482;28;20033;-78
2022/06/01 20:22:01;;;;;;;14.95;10.02;;;14.10;99.90;;;;;;20790343;28;20117;-77
2022/06/01 20:32:02;;;;;;;13.13;9.83;;;14.10;99.90;;;;;;20855747;23;20068;-82
2022/06/01 20:42:04;;;;;;;17.60;9.83;;;14.00;99.90;;;;;;20912475;28;20239;-81
2022/06/01 20:52:05;;;;;;;14.98;9.55;;;14.00;99.90;;;;;;20913354;28;20100;-81
2022/06/01 21:02:07;;;;;;;15.55;8.77;;;13.90;99.90;;;;;;20930198;28;20087;-80
2022/06/01 21:12:20;;;;;;;12.73;8.23;;;13.90;99.90;;;;;;20927739;28;20111;-81
2022/06/01 21:22:21;;;;;;;10.52;7.68;;;13.90;99.90;;;;;;20908643;28;20044;-79
2022/06/01 21:32:22;;;;;;;12.03;7.97;;;13.80;99.90;;;;;;20907678;28;20037;-79
2022/06/01 21:42:23;;;;;;;11.43;8.20;;;13.60;99.90;;;;;;20912870;28;20113;-82
2022/06/01 21:52:26;;;;;;;18.80;9.43;;;13.50;99.90;;;;;;20933159;28;20037;-80
2022/06/01 22:02:27;;;;;;;15.45;10.32;;;13.10;99.90;;;;;;20944072;28;20562;-82
2022/06/01 22:12:28;;;;;;;13.03;8.90;;;13.20;99.90;;;;;;20949315;28;20032;-80
2022/06/01 22:22:29;;;;;;;10.67;8.07;;;13.40;99.90;;;;;;20930491;28;20056;-80
2022/06/01 22:32:30;;;;;;;8.93;6.30;;;13.60;99.90;;;;;;20945916;28;20361;-80
2022/06/01 22:42:33;;;;;;;10.20;7.23;;;13.60;99.90;;;;;;20946371;28;20032;-81
2022/06/01 22:52:57;;;;;;;15.57;9.82;;;13.70;99.90;;;;;;20910509;28;20044;-83
2022/06/01 23:02:58;;;;;;;14.88;9.18;;;13.60;99.90;;;;;;20926184;28;20033;-82
2022/06/01 23:13:00;;;;;;;14.87;10.60;;;13.40;99.90;;;;;;20945158;28;20029;-83
2022/06/01 23:23:10;;;;;;;19.58;11.02;;;13.30;99.90;;;;;;20927352;28;20033;-80
2022/06/01 23:33:14;;;;;;;27.52;14.90;;;13.20;99.90;;;;;;20927696;28;20039;-81
2022/06/01 23:43:36;;;;;;;21.05;15.00;;;13.10;99.90;;;;;;20908674;28;20044;-80
2022/06/01 23:53:43;;;;;;;;;;;13.20;99.90;;;;;;20927277;28;20040;-80
